Главная страница
METAR-TAF:

METAR-TAF

Аэропорты :

Линчёпинг, Швеция

широта: 58-24N, долгота: 015-41E, высота над уровнем моря: 52 м

Текущие метеонаблюдения

Эта сводка был подготовлена 45 минут назад, в 11:50 UTC
Ветер 1 Узел переменных направлений
Температура 9°C
Влажность 93%
Давление 1009 hPa
Видимость 10 км и более
Сплошная облачность на высоте 800 фута

METAR: ESSL 171150Z VRB01KT 9999 OVC008 09/08 Q1009

Время: 14:35 (12:35 UTC)

Прогноз

Эта сводка был подготовлена 1 час и 5 минут назад, в 11:30 UTC
Прогноз действительный с 17-го 12 UTC до 17-го 21 UTC
Ветер 2 Узел переменных направлений
Видимость 10 км и более
Рассеянная облачность на высоте 600 фута
временами
С 17-го 12 UTC до 17-го 21 UTC
Рассеянная облачность на высоте 1500 фута
Вероятность 30%
С 17-го 18 UTC до 17-го 21 UTC
Видимость: 3000 м
Рассеянная облачность на высоте 400 фута
дымка

TAF: ESSL 171130Z 1712/1721 VRB02KT 9999 BKN006 TEMPO 1712/1721 BKN015 PROB30 1718/1721 3000 BR BKN004

Метеонаблюдения и прогнозы для более 4000 аэропортов (сводки METAR и TAF).

Имеющиеся станции представлены на карте желтыми и красными точками.

Чтобы увидеть название станции, наведите на нее мышь.

Затем щелкните, чтобы увидеть метеонаблюдения и метеопрогнозы.

Управление картой: чтобы увеличить масштаб, щелкните зеленые кнопки с черным крестиком; чтобы уменьшить масштаб, щелкните зеленую кнопку с тире; для просмотра соседних карт щелкайте зеленые стрелки.


METAR-TAF: